Antis, Pennsylvania
Current Conditions -  °F | °C
As of 11:02 AM on Monday 26 Jan 2015 (Local Time) from KAOO Reporting Station
Light Snow Light Snow  
Wind Chill: 10°   Ceiling: 1600
Heat Index: 20°   Visibility: 3mi
Dew Point: 18°   Wind: 8mph
Humidity: 92%   Direction: 10°N
Pressure: 29.77"   Gusts: NA
Location:  40.6274°N, 78.3392°W
Report Text: KAOO 261602Z AUTO 01007KT 3SM -SN BR OVC016 M07/M08 A2977 RMK AO2 P0000 T10671078
Loading
Personal Weather Stations






























Interactive Weather Map New forecast layout! Learn more

10-Day Weather Forecast

Advertisements
Track Severe Weather on mobile